createdAt,value
2023-02-08T00:00:23.440Z,534.00
2023-02-08T00:01:13.507Z,528.00
2023-02-08T00:02:03.552Z,529.00
2023-02-08T00:02:53.691Z,531.00
2023-02-08T00:03:43.671Z,532.00
2023-02-08T00:04:33.697Z,530.00
2023-02-08T00:05:23.729Z,527.00
2023-02-08T00:06:14.009Z,532.00
2023-02-08T00:07:04.067Z,537.00
2023-02-08T00:07:54.144Z,528.00
2023-02-08T00:08:44.220Z,530.00
2023-02-08T00:09:34.301Z,529.00
2023-02-08T00:10:24.318Z,531.00
2023-02-08T00:11:14.434Z,531.00
2023-02-08T00:12:04.607Z,537.00
2023-02-08T00:12:54.661Z,531.00
2023-02-08T00:13:44.698Z,530.00
2023-02-08T00:14:34.793Z,526.00
2023-02-08T00:15:24.823Z,529.00
2023-02-08T00:16:14.921Z,529.00
2023-02-08T00:17:04.940Z,534.00
2023-02-08T00:17:55.199Z,526.00
2023-02-08T00:18:45.211Z,530.00
2023-02-08T00:19:35.280Z,530.00
2023-02-08T00:20:25.300Z,529.00
2023-02-08T00:21:15.330Z,527.00
2023-02-08T00:22:05.392Z,533.00
2023-02-08T00:22:55.430Z,537.00
2023-02-08T00:23:45.752Z,532.00
2023-02-08T00:24:35.847Z,533.00
2023-02-08T00:25:25.872Z,532.00
2023-02-08T00:26:15.945Z,529.00
2023-02-08T00:27:06.001Z,527.00
2023-02-08T00:27:56.078Z,527.00
2023-02-08T00:28:46.064Z,527.00
2023-02-08T00:29:36.339Z,524.00
2023-02-08T00:30:26.364Z,531.00
2023-02-08T00:31:16.552Z,527.00
2023-02-08T00:32:06.527Z,531.00
2023-02-08T00:32:56.501Z,527.00
2023-02-08T00:33:46.558Z,527.00
2023-02-08T00:34:36.626Z,530.00
2023-02-08T00:35:26.897Z,526.00
2023-02-08T00:36:16.981Z,529.00
2023-02-08T00:37:06.995Z,520.00
2023-02-08T00:37:57.061Z,523.00
2023-02-08T00:38:47.094Z,521.00
2023-02-08T00:39:37.172Z,526.00
2023-02-08T00:40:27.199Z,532.00
2023-02-08T00:41:17.489Z,527.00
2023-02-08T00:42:07.534Z,526.00
2023-02-08T00:42:57.590Z,524.00
2023-02-08T00:43:47.623Z,525.00
2023-02-08T00:44:37.726Z,525.00
2023-02-08T00:45:27.736Z,526.00
2023-02-08T00:46:17.940Z,522.00
2023-02-08T00:47:08.020Z,527.00
2023-02-08T00:47:58.087Z,527.00
2023-02-08T00:48:48.126Z,524.00
2023-02-08T00:49:38.208Z,526.00
2023-02-08T00:50:28.248Z,528.00
2023-02-08T00:51:18.296Z,524.00
2023-02-08T00:52:08.330Z,526.00
2023-02-08T00:52:58.617Z,529.00
2023-02-08T00:53:48.633Z,526.00
2023-02-08T00:54:38.692Z,528.00
2023-02-08T00:55:28.716Z,519.00
2023-02-08T00:56:18.761Z,526.00
2023-02-08T00:57:08.793Z,521.00
2023-02-08T00:57:58.845Z,523.00
2023-02-08T00:58:48.889Z,524.00
2023-02-08T00:59:38.932Z,529.00
2023-02-08T01:00:29.065Z,523.00
2023-02-08T01:01:19.181Z,525.00
2023-02-08T01:02:09.217Z,526.00
2023-02-08T01:02:59.195Z,524.00
2023-02-08T01:03:49.225Z,522.00
2023-02-08T01:04:39.320Z,526.00
2023-02-08T01:05:29.360Z,529.00
2023-02-08T01:06:19.651Z,526.00
2023-02-08T01:07:09.705Z,526.00
2023-02-08T01:07:59.744Z,521.00
2023-02-08T01:08:49.811Z,525.00
2023-02-08T01:09:39.863Z,525.00
2023-02-08T01:10:29.884Z,522.00
2023-02-08T01:11:19.936Z,523.00
2023-02-08T01:12:10.209Z,530.00
2023-02-08T01:13:00.287Z,529.00
2023-02-08T01:13:50.310Z,525.00
2023-02-08T01:14:40.455Z,527.00
2023-02-08T01:15:30.428Z,525.00
2023-02-08T01:16:20.719Z,526.00
2023-02-08T01:17:10.550Z,521.00
2023-02-08T01:18:00.605Z,524.00
2023-02-08T01:18:50.665Z,521.00
2023-02-08T01:19:42.489Z,524.00
2023-02-08T01:20:30.855Z,522.00
2023-02-08T01:21:20.891Z,524.00
2023-02-08T01:22:10.961Z,517.00
2023-02-08T01:23:01.032Z,523.00
2023-02-08T01:23:51.078Z,522.00
2023-02-08T01:24:41.172Z,529.00
2023-02-08T01:25:31.397Z,519.00
2023-02-08T01:26:21.471Z,523.00
2023-02-08T01:27:11.518Z,523.00
2023-02-08T01:28:01.635Z,518.00
2023-02-08T01:28:51.628Z,520.00
2023-02-08T01:29:41.690Z,525.00
2023-02-08T01:30:31.836Z,525.00
2023-02-08T01:31:22.084Z,518.00
2023-02-08T01:32:12.027Z,523.00
2023-02-08T01:33:02.120Z,520.00
2023-02-08T01:33:52.167Z,522.00
2023-02-08T01:34:44.097Z,524.00
2023-02-08T01:35:32.247Z,517.00
2023-02-08T01:36:22.282Z,522.00
2023-02-08T01:37:12.338Z,523.00
2023-02-08T01:38:02.418Z,520.00
2023-02-08T01:38:52.530Z,519.00
2023-02-08T01:39:42.613Z,519.00
2023-02-08T01:40:32.669Z,526.00
2023-02-08T01:41:22.730Z,528.00
2023-02-08T01:42:12.760Z,520.00
2023-02-08T01:43:02.822Z,520.00
2023-02-08T01:43:52.855Z,523.00
2023-02-08T01:44:43.160Z,522.00
2023-02-08T01:45:33.298Z,525.00
2023-02-08T01:46:23.283Z,529.00
2023-02-08T01:47:13.316Z,521.00
2023-02-08T01:48:03.357Z,522.00
2023-02-08T01:48:53.384Z,518.00
2023-02-08T01:49:43.451Z,520.00
2023-02-08T01:50:33.685Z,522.00
2023-02-08T01:51:23.765Z,521.00
2023-02-08T01:52:13.802Z,515.00
2023-02-08T01:53:03.868Z,520.00
2023-02-08T01:53:53.914Z,508.00
2023-02-08T01:54:44.013Z,521.00
2023-02-08T01:55:34.036Z,513.00
2023-02-08T01:56:24.279Z,521.00
2023-02-08T01:57:14.340Z,523.00
2023-02-08T01:58:04.390Z,520.00
2023-02-08T01:58:54.404Z,520.00
2023-02-08T01:59:44.471Z,520.00
2023-02-08T02:00:34.491Z,521.00
2023-02-08T02:01:24.565Z,518.00
2023-02-08T02:02:14.852Z,516.00
2023-02-08T02:03:04.891Z,519.00
2023-02-08T02:03:54.922Z,515.00
2023-02-08T02:04:45.039Z,518.00
2023-02-08T02:05:35.059Z,513.00
2023-02-08T02:06:25.122Z,512.00
2023-02-08T02:07:15.148Z,519.00
2023-02-08T02:08:05.398Z,517.00
2023-02-08T02:08:55.422Z,516.00
2023-02-08T02:09:45.483Z,517.00
2023-02-08T02:10:35.511Z,513.00
2023-02-08T02:11:25.542Z,515.00
2023-02-08T02:12:15.594Z,520.00
2023-02-08T02:13:05.668Z,510.00
2023-02-08T02:13:55.957Z,515.00
2023-02-08T02:14:46.049Z,516.00
2023-02-08T02:15:36.076Z,515.00
2023-02-08T02:16:26.177Z,515.00
2023-02-08T02:17:16.198Z,517.00
2023-02-08T02:18:06.276Z,515.00
2023-02-08T02:18:56.286Z,507.00
2023-02-08T02:19:46.574Z,516.00
2023-02-08T02:20:38.069Z,510.00
2023-02-08T02:21:26.649Z,519.00
2023-02-08T02:22:16.798Z,514.00
2023-02-08T02:23:06.844Z,514.00
2023-02-08T02:23:56.904Z,519.00
2023-02-08T02:24:46.977Z,520.00
2023-02-08T02:25:36.996Z,518.00
2023-02-08T02:26:27.039Z,515.00
2023-02-08T02:27:17.096Z,517.00
2023-02-08T02:28:07.159Z,514.00
2023-02-08T02:28:57.415Z,516.00
2023-02-08T02:29:47.493Z,515.00
2023-02-08T02:30:37.595Z,518.00
2023-02-08T02:31:27.623Z,510.00
2023-02-08T02:32:17.631Z,515.00
2023-02-08T02:33:07.681Z,513.00
2023-02-08T02:33:57.735Z,516.00
2023-02-08T02:34:48.014Z,511.00
2023-02-08T02:35:38.038Z,506.00
2023-02-08T02:36:28.073Z,513.00
2023-02-08T02:37:18.106Z,511.00
2023-02-08T02:38:08.152Z,510.00
2023-02-08T02:38:58.202Z,515.00
2023-02-08T02:39:48.263Z,510.00
2023-02-08T02:40:38.706Z,511.00
2023-02-08T02:41:28.346Z,517.00
2023-02-08T02:42:18.348Z,518.00
2023-02-08T02:43:08.426Z,519.00
2023-02-08T02:43:58.707Z,514.00
2023-02-08T02:44:48.790Z,517.00
2023-02-08T02:45:38.830Z,514.00
2023-02-08T02:46:28.896Z,512.00
2023-02-08T02:47:18.933Z,515.00
2023-02-08T02:48:09.001Z,513.00
2023-02-08T02:48:59.031Z,513.00
2023-02-08T02:49:49.326Z,517.00
2023-02-08T02:50:39.658Z,509.00
2023-02-08T02:51:29.382Z,511.00
2023-02-08T02:52:19.433Z,513.00
2023-02-08T02:53:09.511Z,515.00
2023-02-08T02:53:59.572Z,513.00
2023-02-08T02:54:49.640Z,511.00
2023-02-08T02:55:39.864Z,509.00
2023-02-08T02:56:29.937Z,512.00
2023-02-08T02:57:19.975Z,514.00
2023-02-08T02:58:10.046Z,512.00
2023-02-08T02:59:00.099Z,516.00
2023-02-08T02:59:50.137Z,520.00
2023-02-08T03:00:40.483Z,518.00
2023-02-08T03:01:30.576Z,517.00
2023-02-08T03:02:20.536Z,512.00
2023-02-08T03:03:10.582Z,515.00
2023-02-08T03:04:00.635Z,505.00
2023-02-08T03:04:50.693Z,507.00
2023-02-08T03:05:40.750Z,510.00
2023-02-08T03:06:30.801Z,514.00
2023-02-08T03:07:21.938Z,511.00
2023-02-08T03:08:11.148Z,515.00
2023-02-08T03:09:01.190Z,510.00
2023-02-08T03:09:51.265Z,506.00
2023-02-08T03:10:41.638Z,510.00
2023-02-08T03:11:31.368Z,512.00
2023-02-08T03:12:21.415Z,507.00
2023-02-08T03:13:11.694Z,517.00
2023-02-08T03:14:01.774Z,514.00
2023-02-08T03:14:51.839Z,513.00
2023-02-08T03:15:41.851Z,515.00
2023-02-08T03:16:31.930Z,517.00
2023-02-08T03:17:21.965Z,512.00
2023-02-08T03:18:12.007Z,514.00
2023-02-08T03:19:02.286Z,516.00
2023-02-08T03:19:52.375Z,506.00
2023-02-08T03:20:42.633Z,513.00
2023-02-08T03:21:32.508Z,511.00
2023-02-08T03:22:22.611Z,510.00
2023-02-08T03:23:12.601Z,513.00
2023-02-08T03:24:02.642Z,511.00
2023-02-08T03:24:52.945Z,516.00
2023-02-08T03:25:42.984Z,511.00
2023-02-08T03:26:33.031Z,516.00
2023-02-08T03:27:23.084Z,506.00
2023-02-08T03:28:13.182Z,513.00
2023-02-08T03:29:03.178Z,514.00
2023-02-08T03:29:53.240Z,516.00
2023-02-08T03:30:43.969Z,514.00
2023-02-08T03:31:33.682Z,516.00
2023-02-08T03:32:23.610Z,508.00
2023-02-08T03:33:13.676Z,511.00
2023-02-08T03:34:03.725Z,519.00
2023-02-08T03:34:53.803Z,515.00
2023-02-08T03:35:43.829Z,513.00
2023-02-08T03:36:34.115Z,508.00
2023-02-08T03:37:24.199Z,509.00
2023-02-08T03:38:14.230Z,508.00
2023-02-08T03:39:04.280Z,510.00
2023-02-08T03:39:54.340Z,510.00
2023-02-08T03:40:44.356Z,510.00
2023-02-08T03:41:34.428Z,518.00
2023-02-08T03:42:24.704Z,512.00
2023-02-08T03:43:14.786Z,510.00
2023-02-08T03:44:04.811Z,513.00
2023-02-08T03:44:54.893Z,512.00
2023-02-08T03:45:44.985Z,515.00
2023-02-08T03:46:34.974Z,517.00
2023-02-08T03:47:25.014Z,506.00
2023-02-08T03:48:15.334Z,512.00
2023-02-08T03:49:05.393Z,508.00
2023-02-08T03:49:55.500Z,510.00
2023-02-08T03:50:45.511Z,512.00
2023-02-08T03:51:35.548Z,515.00
2023-02-08T03:52:25.612Z,506.00
2023-02-08T03:53:15.690Z,514.00
2023-02-08T03:54:05.909Z,515.00
2023-02-08T03:54:55.987Z,510.00
2023-02-08T03:55:46.020Z,512.00
2023-02-08T03:56:36.092Z,513.00
2023-02-08T03:57:26.147Z,517.00
2023-02-08T03:58:16.165Z,512.00
2023-02-08T03:59:06.190Z,504.00
2023-02-08T03:59:56.533Z,515.00
2023-02-08T04:00:46.561Z,510.00
2023-02-08T04:01:36.674Z,510.00
2023-02-08T04:02:26.651Z,511.00
2023-02-08T04:03:16.690Z,505.00
2023-02-08T04:04:06.756Z,508.00
2023-02-08T04:04:56.812Z,510.00
2023-02-08T04:05:46.845Z,508.00
2023-02-08T04:06:36.877Z,506.00
2023-02-08T04:07:27.036Z,501.00
2023-02-08T04:08:17.077Z,511.00
2023-02-08T04:09:07.135Z,511.00
2023-02-08T04:09:57.197Z,509.00
2023-02-08T04:10:47.239Z,508.00
2023-02-08T04:11:37.298Z,507.00
2023-02-08T04:12:27.337Z,513.00
2023-02-08T04:13:17.675Z,507.00
2023-02-08T04:14:07.723Z,508.00
2023-02-08T04:14:57.784Z,504.00
2023-02-08T04:15:47.854Z,505.00
2023-02-08T04:16:37.857Z,510.00
2023-02-08T04:17:27.884Z,504.00
2023-02-08T04:18:17.923Z,507.00
2023-02-08T04:19:08.262Z,508.00
2023-02-08T04:19:58.302Z,508.00
2023-02-08T04:20:48.338Z,512.00
2023-02-08T04:21:38.414Z,503.00
2023-02-08T04:22:28.452Z,507.00
2023-02-08T04:23:18.530Z,501.00
2023-02-08T04:24:08.571Z,506.00
2023-02-08T04:24:58.942Z,506.00
2023-02-08T04:25:48.945Z,510.00
2023-02-08T04:26:38.977Z,511.00
2023-02-08T04:27:29.025Z,504.00
2023-02-08T04:28:19.116Z,503.00
2023-02-08T04:29:09.101Z,507.00
2023-02-08T04:29:59.162Z,507.00
2023-02-08T04:30:49.188Z,509.00
2023-02-08T04:31:39.336Z,507.00
2023-02-08T04:32:29.380Z,513.00
2023-02-08T04:33:19.468Z,509.00
2023-02-08T04:34:09.502Z,513.00
2023-02-08T04:34:59.597Z,508.00
2023-02-08T04:35:49.594Z,509.00
2023-02-08T04:36:39.631Z,507.00
2023-02-08T04:37:29.666Z,511.00
2023-02-08T04:38:20.027Z,512.00
2023-02-08T04:39:10.022Z,514.00
2023-02-08T04:40:00.152Z,512.00
2023-02-08T04:40:50.130Z,510.00
2023-02-08T04:41:40.143Z,514.00
2023-02-08T04:42:30.205Z,509.00
2023-02-08T04:43:20.253Z,515.00
2023-02-08T04:44:10.314Z,512.00
2023-02-08T04:45:00.378Z,516.00
2023-02-08T04:45:50.490Z,512.00
2023-02-08T04:46:40.599Z,514.00
2023-02-08T04:47:30.607Z,514.00
2023-02-08T04:48:20.689Z,516.00
2023-02-08T04:49:10.723Z,508.00
2023-02-08T04:50:00.768Z,519.00
2023-02-08T04:50:50.803Z,514.00
2023-02-08T04:51:41.130Z,512.00
2023-02-08T04:52:31.189Z,512.00
2023-02-08T04:53:21.248Z,516.00
2023-02-08T04:54:11.277Z,512.00
2023-02-08T04:55:01.372Z,517.00
2023-02-08T04:55:51.374Z,509.00
2023-02-08T04:56:41.437Z,515.00
2023-02-08T04:57:31.736Z,514.00
2023-02-08T04:58:21.805Z,511.00
2023-02-08T04:59:11.835Z,510.00
2023-02-08T05:00:01.921Z,510.00
2023-02-08T05:00:51.972Z,515.00
2023-02-08T05:01:42.068Z,516.00
2023-02-08T05:02:32.081Z,512.00
2023-02-08T05:03:22.329Z,517.00
2023-02-08T05:04:12.390Z,512.00
2023-02-08T05:05:02.481Z,518.00
2023-02-08T05:05:52.478Z,515.00
2023-02-08T05:06:42.515Z,520.00
2023-02-08T05:07:32.584Z,513.00
2023-02-08T05:08:22.634Z,513.00
2023-02-08T05:09:12.671Z,514.00
2023-02-08T05:10:02.753Z,514.00
2023-02-08T05:10:52.799Z,512.00
2023-02-08T05:11:42.963Z,515.00
2023-02-08T05:12:33.047Z,518.00
2023-02-08T05:13:23.065Z,512.00
2023-02-08T05:14:13.131Z,516.00
2023-02-08T05:15:03.210Z,518.00
2023-02-08T05:15:53.306Z,515.00
2023-02-08T05:16:43.278Z,519.00
2023-02-08T05:17:33.615Z,515.00
2023-02-08T05:18:23.665Z,513.00
2023-02-08T05:19:13.706Z,517.00
2023-02-08T05:20:03.835Z,517.00
2023-02-08T05:20:53.822Z,517.00
2023-02-08T05:21:43.877Z,516.00
2023-02-08T05:22:33.913Z,518.00
2023-02-08T05:23:24.200Z,527.00
2023-02-08T05:24:14.269Z,516.00
2023-02-08T05:25:04.339Z,518.00
2023-02-08T05:25:54.356Z,516.00
2023-02-08T05:26:44.394Z,525.00
2023-02-08T05:27:34.480Z,524.00
2023-02-08T05:28:24.554Z,519.00
2023-02-08T05:29:14.553Z,516.00
2023-02-08T05:30:04.615Z,522.00
2023-02-08T05:30:54.891Z,518.00
2023-02-08T05:31:44.936Z,515.00
2023-02-08T05:32:34.886Z,522.00
2023-02-08T05:33:24.920Z,514.00
2023-02-08T05:34:14.966Z,523.00
2023-02-08T05:35:05.006Z,518.00
2023-02-08T05:35:55.047Z,522.00
2023-02-08T05:36:45.118Z,523.00
2023-02-08T05:37:35.165Z,517.00
2023-02-08T05:38:25.314Z,516.00
2023-02-08T05:39:15.381Z,523.00
2023-02-08T05:40:05.446Z,517.00
2023-02-08T05:40:55.463Z,519.00
2023-02-08T05:41:45.503Z,520.00
2023-02-08T05:42:35.578Z,518.00
2023-02-08T05:43:25.612Z,519.00
2023-02-08T05:44:15.968Z,518.00
2023-02-08T05:45:06.030Z,514.00
2023-02-08T05:45:56.074Z,516.00
2023-02-08T05:46:46.175Z,519.00
2023-02-08T05:47:36.140Z,525.00
2023-02-08T05:48:26.205Z,524.00
2023-02-08T05:49:16.260Z,516.00
2023-02-08T05:50:06.563Z,521.00
2023-02-08T05:50:56.613Z,522.00
2023-02-08T05:51:46.639Z,516.00
2023-02-08T05:52:36.713Z,516.00
2023-02-08T05:53:26.760Z,516.00
2023-02-08T05:54:16.815Z,519.00
2023-02-08T05:55:06.880Z,511.00
2023-02-08T05:55:56.890Z,519.00
2023-02-08T05:56:46.929Z,516.00
2023-02-08T05:57:37.123Z,515.00
2023-02-08T05:58:27.125Z,520.00
2023-02-08T05:59:17.166Z,513.00
2023-02-08T06:00:07.266Z,516.00
2023-02-08T06:00:57.301Z,520.00
2023-02-08T06:01:47.354Z,517.00
2023-02-08T06:02:37.494Z,519.00
2023-02-08T06:03:27.422Z,521.00
2023-02-08T06:04:17.499Z,512.00
2023-02-08T06:05:07.669Z,523.00
2023-02-08T06:05:57.703Z,517.00
2023-02-08T06:06:47.753Z,514.00
2023-02-08T06:07:37.812Z,514.00
2023-02-08T06:08:27.860Z,519.00
2023-02-08T06:09:17.935Z,519.00
2023-02-08T06:10:07.977Z,518.00
2023-02-08T06:10:58.270Z,517.00
2023-02-08T06:11:48.296Z,515.00
2023-02-08T06:12:38.343Z,522.00
2023-02-08T06:13:28.366Z,519.00
2023-02-08T06:14:18.407Z,510.00
2023-02-08T06:15:08.491Z,514.00
2023-02-08T06:15:58.560Z,516.00
2023-02-08T06:16:48.639Z,513.00
2023-02-08T06:17:38.612Z,515.00
2023-02-08T06:18:28.828Z,518.00
2023-02-08T06:19:18.900Z,518.00
2023-02-08T06:20:08.952Z,523.00
2023-02-08T06:20:58.999Z,524.00
2023-02-08T06:21:49.043Z,524.00
2023-02-08T06:22:39.104Z,519.00
2023-02-08T06:23:29.133Z,520.00
2023-02-08T06:24:19.176Z,513.00
2023-02-08T06:25:09.240Z,520.00
2023-02-08T06:25:59.396Z,517.00
2023-02-08T06:26:49.420Z,517.00
2023-02-08T06:27:39.468Z,519.00
2023-02-08T06:28:29.550Z,520.00
2023-02-08T06:29:19.550Z,522.00
2023-02-08T06:30:09.604Z,522.00
2023-02-08T06:30:59.662Z,520.00
2023-02-08T06:31:49.888Z,527.00
2023-02-08T06:32:39.819Z,519.00
2023-02-08T06:33:29.803Z,519.00
2023-02-08T06:34:19.844Z,525.00
2023-02-08T06:35:10.044Z,519.00
2023-02-08T06:36:00.085Z,520.00
2023-02-08T06:36:50.125Z,526.00
2023-02-08T06:37:40.164Z,530.00
2023-02-08T06:38:30.213Z,521.00
2023-02-08T06:39:20.279Z,528.00
2023-02-08T06:40:10.332Z,528.00
2023-02-08T06:41:00.624Z,525.00
2023-02-08T06:41:50.682Z,521.00
2023-02-08T06:42:40.726Z,532.00
2023-02-08T06:43:30.779Z,524.00
2023-02-08T06:44:20.860Z,523.00
2023-02-08T06:45:13.541Z,523.00
2023-02-08T06:46:01.038Z,523.00
2023-02-08T06:46:51.032Z,524.00
2023-02-08T06:47:41.169Z,523.00
2023-02-08T06:48:31.160Z,526.00
2023-02-08T06:49:21.240Z,524.00
2023-02-08T06:50:11.296Z,531.00
2023-02-08T06:51:01.331Z,526.00
2023-02-08T06:51:51.355Z,522.00
2023-02-08T06:52:41.546Z,532.00
2023-02-08T06:53:31.570Z,527.00
2023-02-08T06:54:21.615Z,525.00
2023-02-08T06:55:11.679Z,531.00
2023-02-08T06:56:01.702Z,523.00
2023-02-08T06:56:53.653Z,531.00
2023-02-08T06:57:41.772Z,531.00
2023-02-08T06:58:31.804Z,531.00
2023-02-08T06:59:21.901Z,526.00
2023-02-08T07:00:11.922Z,526.00
2023-02-08T07:01:01.967Z,526.00
2023-02-08T07:01:51.980Z,526.00
2023-02-08T07:02:42.122Z,527.00
2023-02-08T07:03:32.108Z,526.00
2023-02-08T07:04:22.286Z,524.00
2023-02-08T07:05:12.330Z,528.00
2023-02-08T07:06:05.248Z,528.00
2023-02-08T07:06:52.423Z,532.00
2023-02-08T07:07:42.495Z,525.00
2023-02-08T07:08:32.530Z,530.00
2023-02-08T07:09:22.704Z,531.00
2023-02-08T07:10:12.739Z,529.00
2023-02-08T07:11:02.784Z,529.00
2023-02-08T07:11:52.847Z,532.00
2023-02-08T07:12:42.904Z,530.00
2023-02-08T07:13:32.937Z,528.00
2023-02-08T07:14:22.981Z,529.00
2023-02-08T07:15:13.031Z,528.00
2023-02-08T07:16:03.072Z,530.00
2023-02-08T07:16:55.811Z,530.00
2023-02-08T07:17:43.283Z,529.00
2023-02-08T07:18:33.324Z,536.00
2023-02-08T07:19:23.409Z,530.00
2023-02-08T07:20:13.451Z,532.00
2023-02-08T07:21:03.510Z,536.00
2023-02-08T07:21:53.510Z,533.00
2023-02-08T07:22:43.583Z,536.00
2023-02-08T07:23:33.628Z,525.00
2023-02-08T07:24:23.893Z,534.00
2023-02-08T07:25:13.915Z,528.00
2023-02-08T07:26:03.958Z,534.00
2023-02-08T07:26:54.043Z,533.00
2023-02-08T07:27:44.066Z,531.00
2023-02-08T07:28:34.091Z,532.00
2023-02-08T07:29:24.149Z,530.00
2023-02-08T07:30:14.188Z,528.00
2023-02-08T07:31:04.273Z,534.00
2023-02-08T07:31:54.429Z,529.00
2023-02-08T07:32:44.434Z,526.00
2023-02-08T07:33:34.466Z,534.00
2023-02-08T07:34:24.529Z,534.00
2023-02-08T07:35:14.632Z,535.00
2023-02-08T07:36:04.624Z,532.00
2023-02-08T07:36:54.668Z,532.00
2023-02-08T07:37:44.745Z,527.00
2023-02-08T07:38:34.786Z,527.00
2023-02-08T07:39:24.835Z,528.00
2023-02-08T07:40:14.910Z,529.00
2023-02-08T07:41:04.957Z,523.00
2023-02-08T07:41:54.979Z,526.00
2023-02-08T07:42:45.030Z,528.00
2023-02-08T07:43:35.060Z,529.00
2023-02-08T07:44:25.131Z,529.00
2023-02-08T07:45:15.280Z,534.00
2023-02-08T07:46:05.364Z,531.00
2023-02-08T07:46:55.343Z,525.00
2023-02-08T07:47:45.422Z,532.00
2023-02-08T07:48:35.452Z,530.00
2023-02-08T07:49:25.532Z,536.00
2023-02-08T07:50:15.590Z,529.00
2023-02-08T07:51:05.901Z,530.00
2023-02-08T07:51:55.900Z,524.00
2023-02-08T07:52:45.977Z,530.00
2023-02-08T07:53:36.018Z,532.00
2023-02-08T07:54:26.058Z,524.00
2023-02-08T07:55:16.102Z,533.00
2023-02-08T07:56:06.113Z,531.00
2023-02-08T07:56:56.143Z,526.00
2023-02-08T07:57:46.200Z,534.00
2023-02-08T07:58:36.363Z,529.00
2023-02-08T07:59:26.444Z,531.00
2023-02-08T08:00:16.498Z,534.00
2023-02-08T08:01:20.124Z,534.00
2023-02-08T08:01:57.624Z,531.00
2023-02-08T08:02:46.637Z,530.00
2023-02-08T08:03:36.816Z,524.00
2023-02-08T08:04:26.764Z,528.00
2023-02-08T08:05:16.821Z,535.00
2023-02-08T08:06:06.863Z,534.00
2023-02-08T08:06:56.923Z,535.00
2023-02-08T08:07:46.965Z,527.00
2023-02-08T08:08:37.006Z,535.00
2023-02-08T08:09:27.173Z,533.00
2023-02-08T08:10:17.218Z,532.00
2023-02-08T08:11:07.263Z,537.00
2023-02-08T08:11:57.317Z,533.00
2023-02-08T08:12:47.370Z,534.00
2023-02-08T08:13:37.368Z,532.00
2023-02-08T08:14:27.408Z,534.00
2023-02-08T08:15:17.450Z,536.00
2023-02-08T08:16:07.555Z,532.00
2023-02-08T08:16:57.656Z,530.00
2023-02-08T08:17:47.695Z,530.00
2023-02-08T08:18:37.728Z,530.00
2023-02-08T08:19:27.797Z,532.00
2023-02-08T08:20:17.859Z,532.00
2023-02-08T08:21:08.031Z,527.00
2023-02-08T08:21:58.057Z,528.00
2023-02-08T08:22:48.124Z,530.00
2023-02-08T08:23:38.114Z,526.00
2023-02-08T08:24:28.157Z,530.00
2023-02-08T08:25:18.238Z,530.00
2023-02-08T08:26:08.286Z,535.00
2023-02-08T08:26:58.347Z,536.00
2023-02-08T08:27:48.422Z,536.00
2023-02-08T08:28:38.588Z,529.00
2023-02-08T08:29:28.627Z,529.00
2023-02-08T08:30:18.709Z,527.00
2023-02-08T08:31:08.829Z,527.00
2023-02-08T08:31:58.790Z,532.00
2023-02-08T08:32:48.869Z,535.00
2023-02-08T08:33:38.935Z,534.00
2023-02-08T08:34:29.124Z,531.00
2023-02-08T08:35:19.211Z,533.00
2023-02-08T08:36:09.270Z,528.00
2023-02-08T08:36:59.296Z,531.00
2023-02-08T08:37:49.349Z,527.00
2023-02-08T08:38:39.437Z,533.00
2023-02-08T08:39:29.425Z,534.00
2023-02-08T08:40:19.461Z,534.00
2023-02-08T08:41:09.516Z,527.00
2023-02-08T08:41:59.711Z,530.00
2023-02-08T08:42:49.718Z,528.00
2023-02-08T08:43:39.753Z,532.00
2023-02-08T08:44:29.831Z,528.00
2023-02-08T08:45:19.885Z,525.00
2023-02-08T08:46:10.072Z,532.00
2023-02-08T08:46:59.954Z,531.00
2023-02-08T08:47:50.028Z,527.00
2023-02-08T08:48:40.069Z,533.00
2023-02-08T08:49:30.231Z,520.00
2023-02-08T08:50:20.306Z,528.00
2023-02-08T08:51:10.340Z,529.00
2023-02-08T08:52:00.384Z,534.00
2023-02-08T08:52:50.410Z,525.00
2023-02-08T08:53:40.472Z,525.00
2023-02-08T08:54:30.547Z,529.00
2023-02-08T08:55:20.862Z,527.00
2023-02-08T08:56:10.896Z,521.00
2023-02-08T08:57:00.918Z,525.00
2023-02-08T08:57:50.990Z,524.00
2023-02-08T08:58:41.028Z,526.00
2023-02-08T08:59:31.094Z,528.00
2023-02-08T09:00:21.144Z,525.00
2023-02-08T09:01:11.442Z,523.00
2023-02-08T09:02:01.578Z,535.00
2023-02-08T09:02:51.530Z,527.00
2023-02-08T09:03:41.546Z,524.00
2023-02-08T09:04:31.627Z,536.00
2023-02-08T09:05:21.700Z,529.00
2023-02-08T09:06:11.736Z,536.00
2023-02-08T09:07:02.012Z,532.00
2023-02-08T09:07:52.082Z,531.00
2023-02-08T09:08:42.115Z,522.00
2023-02-08T09:09:32.186Z,527.00
2023-02-08T09:10:22.427Z,534.00
2023-02-08T09:11:12.262Z,532.00
2023-02-08T09:12:02.305Z,534.00
2023-02-08T09:12:52.675Z,530.00
2023-02-08T09:13:42.659Z,533.00
2023-02-08T09:14:32.699Z,524.00
2023-02-08T09:15:22.776Z,525.00
2023-02-08T09:16:12.856Z,530.00
2023-02-08T09:17:02.867Z,536.00
2023-02-08T09:17:52.910Z,524.00
2023-02-08T09:18:43.287Z,531.00
2023-02-08T09:19:33.293Z,531.00
2023-02-08T09:20:23.340Z,531.00
2023-02-08T09:21:13.362Z,528.00
2023-02-08T09:22:03.397Z,532.00
2023-02-08T09:22:53.463Z,529.00
2023-02-08T09:23:43.512Z,535.00
2023-02-08T09:24:33.821Z,540.00
2023-02-08T09:25:23.893Z,537.00
2023-02-08T09:26:13.905Z,534.00
2023-02-08T09:27:03.958Z,530.00
2023-02-08T09:27:54.112Z,527.00
2023-02-08T09:28:44.156Z,532.00
2023-02-08T09:29:34.216Z,528.00
2023-02-08T09:30:24.275Z,532.00
2023-02-08T09:31:14.496Z,527.00
2023-02-08T09:32:04.397Z,537.00
2023-02-08T09:32:54.402Z,524.00
2023-02-08T09:33:44.449Z,529.00
2023-02-08T09:34:34.741Z,534.00
2023-02-08T09:35:24.818Z,532.00
2023-02-08T09:36:14.852Z,529.00
2023-02-08T09:37:04.874Z,531.00
2023-02-08T09:37:54.952Z,526.00
2023-02-08T09:38:44.981Z,529.00
2023-02-08T09:39:35.043Z,528.00
2023-02-08T09:40:25.397Z,526.00
2023-02-08T09:41:15.428Z,530.00
2023-02-08T09:42:05.432Z,535.00
2023-02-08T09:42:55.503Z,533.00
2023-02-08T09:43:45.541Z,527.00
2023-02-08T09:44:35.601Z,533.00
2023-02-08T09:45:25.672Z,532.00
2023-02-08T09:46:15.959Z,536.00
2023-02-08T09:47:05.969Z,536.00
2023-02-08T09:47:56.000Z,526.00
2023-02-08T09:48:46.067Z,530.00
2023-02-08T09:49:36.148Z,529.00
2023-02-08T09:50:26.221Z,533.00
2023-02-08T09:51:16.281Z,529.00
2023-02-08T09:52:06.556Z,527.00
2023-02-08T09:52:56.615Z,535.00
2023-02-08T09:53:46.654Z,527.00
2023-02-08T09:54:36.713Z,532.00
2023-02-08T09:55:26.760Z,524.00
2023-02-08T09:56:16.793Z,539.00
2023-02-08T09:57:06.860Z,527.00
2023-02-08T09:57:57.158Z,529.00
2023-02-08T09:58:47.215Z,530.00
2023-02-08T09:59:37.255Z,534.00
2023-02-08T10:00:27.334Z,524.00
2023-02-08T10:01:17.445Z,529.00
2023-02-08T10:02:07.407Z,527.00
2023-02-08T10:02:57.544Z,528.00
2023-02-08T10:03:47.721Z,531.00
2023-02-08T10:04:37.797Z,529.00
2023-02-08T10:05:27.859Z,525.00
2023-02-08T10:06:17.890Z,526.00
2023-02-08T10:07:07.938Z,531.00
2023-02-08T10:07:57.992Z,524.00
2023-02-08T10:08:48.033Z,520.00
2023-02-08T10:09:38.363Z,527.00
2023-02-08T10:10:28.428Z,531.00
2023-02-08T10:11:18.485Z,527.00
2023-02-08T10:12:08.535Z,521.00
2023-02-08T10:12:58.606Z,530.00
2023-02-08T10:13:48.616Z,527.00
2023-02-08T10:14:38.652Z,530.00
2023-02-08T10:15:29.013Z,518.00
2023-02-08T10:16:19.046Z,524.00
2023-02-08T10:17:09.052Z,529.00
2023-02-08T10:17:59.180Z,529.00
2023-02-08T10:18:49.147Z,518.00
2023-02-08T10:19:39.219Z,527.00
2023-02-08T10:20:29.284Z,526.00
2023-02-08T10:21:19.311Z,519.00
2023-02-08T10:22:09.354Z,520.00
2023-02-08T10:22:59.528Z,520.00
2023-02-08T10:23:49.587Z,527.00
2023-02-08T10:24:39.637Z,521.00